createdAt,value
2018-08-31T00:01:38.380Z,99.99
2018-08-31T00:04:20.393Z,99.99
2018-08-31T00:05:20.432Z,99.99
2018-08-31T00:06:20.280Z,99.99
2018-08-31T00:07:20.227Z,99.99
2018-08-31T00:08:20.057Z,99.99
2018-08-31T00:09:20.121Z,99.99
2018-08-31T00:10:19.901Z,99.99
2018-08-31T00:11:19.941Z,99.99
2018-08-31T00:12:19.736Z,99.99
2018-08-31T00:13:19.754Z,99.99
2018-08-31T00:14:19.566Z,99.99
2018-08-31T00:15:19.609Z,99.99
2018-08-31T00:16:19.411Z,99.99
2018-08-31T00:17:19.378Z,99.99
2018-08-31T00:18:19.259Z,99.99
2018-08-31T00:19:19.275Z,99.99
2018-08-31T00:20:19.112Z,99.99
2018-08-31T00:21:19.087Z,99.99
2018-08-31T00:22:18.930Z,99.99
2018-08-31T00:23:18.902Z,99.99
2018-08-31T00:24:18.776Z,99.99
2018-08-31T00:25:18.748Z,99.99
2018-08-31T00:26:18.724Z,99.99
2018-08-31T00:27:18.617Z,99.99
2018-08-31T00:28:18.457Z,99.99
2018-08-31T00:29:18.433Z,99.99
2018-08-31T00:30:18.323Z,99.99
2018-08-31T00:31:18.347Z,99.99
2018-08-31T00:32:18.129Z,99.99
2018-08-31T00:33:18.144Z,99.99
2018-08-31T00:34:17.967Z,99.99
2018-08-31T00:35:17.953Z,99.99
2018-08-31T00:36:17.844Z,99.99
2018-08-31T00:37:17.767Z,99.99
2018-08-31T00:38:17.649Z,99.99
2018-08-31T00:39:17.684Z,99.99
2018-08-31T00:40:17.492Z,99.99
2018-08-31T00:41:17.521Z,99.99
2018-08-31T00:42:17.450Z,99.99
2018-08-31T00:43:17.286Z,99.99
2018-08-31T00:44:17.178Z,99.99
2018-08-31T00:45:17.290Z,99.99
2018-08-31T00:46:17.035Z,99.99
2018-08-31T00:47:17.015Z,99.99
2018-08-31T00:48:16.843Z,99.99
2018-08-31T00:49:16.813Z,99.99
2018-08-31T00:50:16.683Z,99.99
2018-08-31T00:51:16.659Z,99.99
2018-08-31T00:52:16.534Z,99.99
2018-08-31T00:53:16.534Z,99.99
2018-08-31T00:54:16.359Z,99.99
2018-08-31T00:55:16.349Z,99.99
2018-08-31T00:56:16.230Z,99.99
2018-08-31T00:57:16.145Z,99.99
2018-08-31T00:58:16.050Z,99.99
2018-08-31T00:59:16.074Z,99.99
2018-08-31T01:00:15.882Z,99.99
2018-08-31T01:01:15.901Z,99.99
2018-08-31T01:02:15.719Z,99.99
2018-08-31T01:04:57.904Z,99.99
2018-08-31T01:07:39.907Z,99.99
2018-08-31T01:08:39.875Z,99.99
2018-08-31T01:09:39.731Z,99.99
2018-08-31T01:10:39.685Z,99.99
2018-08-31T01:11:39.619Z,99.99
2018-08-31T01:12:39.656Z,99.99
2018-08-31T01:13:39.417Z,99.99
2018-08-31T01:14:39.514Z,99.99
2018-08-31T01:15:39.243Z,99.99
2018-08-31T01:16:39.175Z,99.99
2018-08-31T01:17:39.103Z,99.99
2018-08-31T01:20:21.391Z,99.99
2018-08-31T01:21:21.426Z,99.99
2018-08-31T01:22:21.253Z,99.99
2018-08-31T01:23:21.268Z,99.99
2018-08-31T01:24:21.083Z,99.99
2018-08-31T01:25:21.049Z,99.99
2018-08-31T01:26:20.903Z,99.99
2018-08-31T01:50:03.033Z,99.99
2018-08-31T01:51:02.815Z,99.99
2018-08-31T01:52:02.845Z,99.99
2018-08-31T01:53:02.681Z,99.99
2018-08-31T01:54:02.593Z,99.99
2018-08-31T01:55:02.502Z,99.99
2018-08-31T01:57:41.486Z,99.99
2018-08-31T01:57:41.983Z,99.99
2018-08-31T01:58:41.980Z,99.99
2018-08-31T01:59:41.814Z,99.99
2018-08-31T02:00:41.875Z,99.99
2018-08-31T02:01:41.666Z,99.99
2018-08-31T02:02:41.855Z,99.99
2018-08-31T02:03:41.527Z,99.99
2018-08-31T02:06:23.399Z,99.99
2018-08-31T02:07:23.372Z,99.99
2018-08-31T02:08:23.263Z,99.99
2018-08-31T02:09:23.213Z,99.99
2018-08-31T02:10:23.079Z,99.99
2018-08-31T02:11:23.092Z,99.99
2018-08-31T02:12:22.923Z,99.99
2018-08-31T02:13:22.905Z,99.99
2018-08-31T02:14:22.776Z,99.99
2018-08-31T02:15:22.712Z,99.99
2018-08-31T02:16:22.608Z,99.99
2018-08-31T02:17:22.623Z,99.99
2018-08-31T02:18:22.457Z,99.99
2018-08-31T02:19:22.462Z,99.99
2018-08-31T02:20:22.270Z,99.99
2018-08-31T02:21:22.235Z,99.99
2018-08-31T02:22:22.117Z,99.99
2018-08-31T02:23:22.172Z,99.99
2018-08-31T02:24:21.983Z,99.99
2018-08-31T02:25:21.999Z,99.99
2018-08-31T02:26:21.800Z,99.99
2018-08-31T02:27:21.768Z,99.99
2018-08-31T02:28:21.631Z,99.99
2018-08-31T02:29:21.673Z,99.99
2018-08-31T02:30:21.490Z,99.99
2018-08-31T02:31:21.488Z,99.99
2018-08-31T02:32:21.342Z,99.99
2018-08-31T02:35:03.447Z,99.99
2018-08-31T02:36:03.389Z,99.99
2018-08-31T02:37:03.244Z,99.99
2018-08-31T02:38:03.303Z,99.99
2018-08-31T02:39:03.183Z,99.99
2018-08-31T02:40:03.106Z,99.99
2018-08-31T02:41:02.943Z,99.99
2018-08-31T02:43:44.929Z,99.99
2018-08-31T02:46:26.937Z,99.99
2018-08-31T02:47:26.922Z,99.99
2018-08-31T02:48:26.765Z,99.99
2018-08-31T02:49:26.722Z,99.99
2018-08-31T02:50:26.609Z,99.99
2018-08-31T02:51:27.598Z,99.99
2018-08-31T02:52:26.425Z,99.99
2018-08-31T02:53:26.440Z,99.99
2018-08-31T02:54:26.276Z,99.99
2018-08-31T02:57:08.427Z,99.99
2018-08-31T02:58:08.448Z,99.99
2018-08-31T03:03:25.312Z,99.99
2018-08-31T03:04:25.165Z,99.99
2018-08-31T03:05:25.203Z,99.99
2018-08-31T03:06:25.019Z,99.99
2018-08-31T03:07:25.007Z,99.99
2018-08-31T03:08:24.838Z,99.99
2018-08-31T03:09:24.820Z,99.99
2018-08-31T03:10:24.686Z,99.99
2018-08-31T03:11:24.776Z,99.99
2018-08-31T03:12:24.536Z,99.99
2018-08-31T03:13:24.520Z,99.99
2018-08-31T03:15:24.341Z,99.99
2018-08-31T03:16:24.181Z,99.99
2018-08-31T03:17:24.315Z,99.99
2018-08-31T03:18:24.034Z,99.99
2018-08-31T03:19:24.065Z,99.99
2018-08-31T03:20:23.869Z,99.99
2018-08-31T03:21:23.886Z,99.99
2018-08-31T03:22:23.723Z,99.99
2018-08-31T03:23:23.679Z,99.99
2018-08-31T03:24:23.562Z,99.99
2018-08-31T03:25:23.581Z,99.99
2018-08-31T03:26:23.376Z,99.99
2018-08-31T03:27:23.624Z,99.99
2018-08-31T03:28:23.242Z,99.99
2018-08-31T03:29:23.157Z,99.99
2018-08-31T03:30:23.081Z,99.99
2018-08-31T03:31:23.104Z,99.99
2018-08-31T03:32:22.899Z,99.99
2018-08-31T03:33:22.978Z,99.99
2018-08-31T03:34:22.765Z,99.99
2018-08-31T03:35:22.725Z,99.99
2018-08-31T03:36:22.585Z,99.99
2018-08-31T03:37:22.563Z,99.99
2018-08-31T03:38:22.434Z,99.99
2018-08-31T03:39:22.441Z,99.99
2018-08-31T03:40:22.265Z,99.99
2018-08-31T03:43:04.440Z,99.99
2018-08-31T03:44:04.450Z,99.99
2018-08-31T03:45:04.271Z,99.99
2018-08-31T03:48:51.438Z,99.99
2018-08-31T03:49:47.369Z,99.99
2018-08-31T03:50:51.186Z,99.99
2018-08-31T03:51:47.201Z,99.99
2018-08-31T03:52:51.307Z,99.99
2018-08-31T03:53:47.064Z,99.99
2018-08-31T03:54:49.180Z,99.99
2018-08-31T03:55:46.863Z,99.99
2018-08-31T03:56:46.820Z,99.99
2018-08-31T03:57:46.697Z,99.99
2018-08-31T03:58:49.252Z,99.99
2018-08-31T03:59:46.593Z,99.99
2018-08-31T04:00:46.541Z,99.99
2018-08-31T04:01:46.380Z,99.99
2018-08-31T04:02:46.438Z,99.99
2018-08-31T04:03:46.235Z,99.99
2018-08-31T04:04:46.264Z,99.99
2018-08-31T04:05:46.148Z,99.99
2018-08-31T04:06:46.113Z,99.99
2018-08-31T04:07:45.902Z,99.99
2018-08-31T04:08:45.922Z,99.99
2018-08-31T04:09:45.734Z,99.99
2018-08-31T04:10:45.670Z,99.99
2018-08-31T04:11:45.585Z,99.99
2018-08-31T04:12:45.498Z,99.99
2018-08-31T04:13:45.419Z,99.99
2018-08-31T04:14:45.450Z,99.99
2018-08-31T04:15:45.255Z,99.99
2018-08-31T04:16:45.225Z,99.99
2018-08-31T04:17:45.089Z,99.99
2018-08-31T04:20:26.960Z,99.99
2018-08-31T04:21:26.919Z,99.99
2018-08-31T04:22:26.770Z,99.99
2018-08-31T04:23:26.732Z,99.99
2018-08-31T04:24:26.613Z,99.99
2018-08-31T04:25:26.680Z,99.99
2018-08-31T04:26:26.532Z,99.99
2018-08-31T04:27:53.536Z,99.99
2018-08-31T04:28:26.295Z,99.99
2018-08-31T04:29:26.466Z,99.99
2018-08-31T04:30:26.149Z,99.99
2018-08-31T04:31:26.098Z,99.99
2018-08-31T04:32:25.983Z,99.99
2018-08-31T04:33:25.989Z,99.99
2018-08-31T04:34:25.812Z,99.99
2018-08-31T04:35:26.845Z,99.99
2018-08-31T04:36:25.678Z,99.99
2018-08-31T04:37:25.597Z,99.99
2018-08-31T04:38:25.486Z,99.99
2018-08-31T04:39:25.507Z,99.99
2018-08-31T04:40:25.366Z,99.99
2018-08-31T04:41:25.266Z,99.99
2018-08-31T04:42:25.172Z,99.99
2018-08-31T04:43:25.087Z,99.99
2018-08-31T04:44:25.029Z,99.99
2018-08-31T04:45:24.926Z,99.99
2018-08-31T04:46:24.974Z,99.99
2018-08-31T04:49:06.937Z,99.99
2018-08-31T04:50:06.870Z,99.99
2018-08-31T04:51:06.801Z,99.99
2018-08-31T04:52:06.703Z,99.99
2018-08-31T04:53:06.630Z,99.99
2018-08-31T04:54:06.546Z,99.99
2018-08-31T04:55:06.464Z,99.99
2018-08-31T04:56:07.446Z,99.99
2018-08-31T04:57:06.317Z,99.99
2018-08-31T04:58:06.226Z,99.99
2018-08-31T04:59:06.132Z,99.99
2018-08-31T05:01:48.481Z,99.99
2018-08-31T05:02:48.362Z,99.99
2018-08-31T05:03:48.277Z,99.99
2018-08-31T05:04:48.204Z,99.99
2018-08-31T05:05:48.123Z,99.99
2018-08-31T05:06:48.070Z,99.99
2018-08-31T05:07:47.967Z,99.99
2018-08-31T05:08:47.919Z,99.99
2018-08-31T05:09:47.796Z,99.99
2018-08-31T05:10:47.813Z,99.99
2018-08-31T05:11:47.761Z,99.99
2018-08-31T05:14:30.043Z,99.99
2018-08-31T05:15:29.869Z,99.99
2018-08-31T05:16:29.782Z,99.99
2018-08-31T05:17:30.725Z,99.99
2018-08-31T05:18:29.634Z,99.99
2018-08-31T05:19:29.547Z,99.99
2018-08-31T05:20:29.462Z,99.99
2018-08-31T05:23:11.472Z,99.99
2018-08-31T05:24:11.377Z,99.99
2018-08-31T05:25:11.280Z,99.99
2018-08-31T05:26:11.217Z,99.99
2018-08-31T05:27:11.159Z,99.99
2018-08-31T05:28:11.082Z,99.99
2018-08-31T05:29:10.971Z,99.99
2018-08-31T05:30:12.891Z,99.99
2018-08-31T05:31:10.815Z,99.99
2018-08-31T05:32:10.726Z,99.99
2018-08-31T05:33:10.652Z,99.99
2018-08-31T05:34:11.575Z,99.99
2018-08-31T05:35:10.505Z,99.99
2018-08-31T05:36:10.403Z,99.99
2018-08-31T05:37:10.333Z,99.99
2018-08-31T05:38:10.273Z,99.99
2018-08-31T05:51:33.180Z,99.99
2018-08-31T05:52:33.103Z,99.99
2018-08-31T05:53:33.027Z,99.99
2018-08-31T05:54:32.950Z,99.99
2018-08-31T05:55:32.835Z,99.99
2018-08-31T05:56:32.760Z,99.99
2018-08-31T05:57:32.681Z,99.99
2018-08-31T06:00:14.983Z,99.99
2018-08-31T06:01:14.890Z,99.99
2018-08-31T06:02:14.852Z,99.99
2018-08-31T06:03:14.728Z,99.99
2018-08-31T06:04:14.654Z,99.99
2018-08-31T06:05:14.573Z,99.99
2018-08-31T06:06:14.480Z,99.99
2018-08-31T06:08:56.777Z,99.99
2018-08-31T06:11:38.492Z,99.99
2018-08-31T06:12:38.442Z,99.99
2018-08-31T06:13:38.298Z,99.99
2018-08-31T06:14:39.236Z,99.99
2018-08-31T06:15:38.166Z,99.99
2018-08-31T06:16:38.060Z,99.99
2018-08-31T06:17:37.987Z,99.99
2018-08-31T06:18:37.904Z,99.99
2018-08-31T06:19:37.936Z,99.99
2018-08-31T06:20:37.740Z,99.99
2018-08-31T06:21:37.651Z,99.99
2018-08-31T06:22:37.736Z,99.99
2018-08-31T06:23:37.494Z,99.99
2018-08-31T06:24:37.436Z,99.99
2018-08-31T06:25:37.351Z,99.99
2018-08-31T06:26:37.263Z,99.99
2018-08-31T06:27:37.178Z,99.99
2018-08-31T06:28:37.133Z,99.99
2018-08-31T06:29:37.018Z,99.99
2018-08-31T06:32:18.998Z,99.99
2018-08-31T06:33:18.894Z,99.99
2018-08-31T06:34:18.811Z,99.99
2018-08-31T06:35:18.785Z,99.77
2018-08-31T06:36:18.648Z,99.58
2018-08-31T06:39:00.482Z,97.47
2018-08-31T06:40:01.417Z,98.05
2018-08-31T06:41:00.300Z,97.38
2018-08-31T06:42:01.249Z,97.09
2018-08-31T06:43:00.174Z,97.85
2018-08-31T06:44:01.081Z,96.99
2018-08-31T06:44:59.992Z,96.89
2018-08-31T06:46:00.932Z,96.80
2018-08-31T06:46:59.853Z,96.99
2018-08-31T06:47:59.759Z,96.18
2018-08-31T06:48:59.669Z,96.99
2018-08-31T06:49:59.591Z,96.47
2018-08-31T06:50:59.702Z,95.70
2018-08-31T06:51:59.698Z,95.07
2018-08-31T06:52:59.519Z,96.18
2018-08-31T06:53:59.630Z,95.60
2018-08-31T06:54:59.196Z,95.12
2018-08-31T06:55:59.143Z,95.12
2018-08-31T06:56:59.046Z,94.17
2018-08-31T06:57:58.975Z,94.45
2018-08-31T06:58:58.891Z,95.12
2018-08-31T06:59:58.807Z,94.54
2018-08-31T07:00:58.730Z,94.49
2018-08-31T07:01:58.667Z,92.96
2018-08-31T07:02:58.576Z,92.96
2018-08-31T07:03:58.524Z,93.06
2018-08-31T07:04:58.404Z,91.81
2018-08-31T07:05:58.328Z,92.10
2018-08-31T07:06:58.280Z,91.62
2018-08-31T07:07:58.173Z,91.72
2018-08-31T07:08:58.100Z,91.96
2018-08-31T07:09:58.580Z,91.38
2018-08-31T07:10:57.936Z,90.80
2018-08-31T07:11:57.860Z,91.28
2018-08-31T07:12:57.955Z,91.76
2018-08-31T07:15:39.972Z,90.03
2018-08-31T07:16:39.945Z,90.42
2018-08-31T07:17:39.831Z,91.38
2018-08-31T07:18:39.754Z,91.05
2018-08-31T07:19:39.686Z,91.19
2018-08-31T07:20:39.585Z,90.80
2018-08-31T07:21:39.507Z,90.70
2018-08-31T07:22:39.560Z,90.70
2018-08-31T07:23:39.341Z,90.52
2018-08-31T07:24:39.279Z,90.52
2018-08-31T07:25:39.187Z,89.60
2018-08-31T07:28:21.515Z,89.94
2018-08-31T07:29:21.425Z,89.46
2018-08-31T07:30:21.342Z,90.13
2018-08-31T07:31:21.248Z,90.27
2018-08-31T07:32:21.183Z,89.31
2018-08-31T07:33:21.101Z,89.60
2018-08-31T07:34:21.026Z,89.98
2018-08-31T07:37:02.991Z,89.26
2018-08-31T07:38:02.932Z,89.17
2018-08-31T07:39:02.887Z,89.26
2018-08-31T07:40:02.967Z,89.31
2018-08-31T07:41:02.785Z,88.73
2018-08-31T07:43:28.017Z,87.05
2018-08-31T07:46:09.992Z,87.39
2018-08-31T07:47:09.914Z,87.19
2018-08-31T07:48:09.867Z,87.29
2018-08-31T07:49:09.759Z,87.15
2018-08-31T07:50:09.670Z,86.47
2018-08-31T07:52:51.679Z,84.88
2018-08-31T07:53:51.502Z,84.40
2018-08-31T07:54:51.339Z,84.40
2018-08-31T07:55:51.263Z,84.06
2018-08-31T07:56:51.180Z,83.77
2018-08-31T07:59:33.260Z,83.86
2018-08-31T08:00:32.917Z,84.63
2018-08-31T08:01:32.855Z,84.69
2018-08-31T08:04:15.048Z,83.96
2018-08-31T08:05:14.916Z,83.96
2018-08-31T08:06:14.834Z,83.04
2018-08-31T08:07:14.771Z,82.37
2018-08-31T08:08:14.680Z,81.88
2018-08-31T08:09:14.637Z,82.27
2018-08-31T08:10:14.584Z,81.88
2018-08-31T08:11:14.445Z,81.70
2018-08-31T08:12:14.382Z,80.92
2018-08-31T08:13:14.302Z,81.37
2018-08-31T08:14:14.201Z,81.70
2018-08-31T08:15:15.194Z,80.19
2018-08-31T08:16:14.113Z,79.71
2018-08-31T08:17:13.994Z,79.13
2018-08-31T08:18:13.897Z,79.03
2018-08-31T08:19:13.820Z,78.02
2018-08-31T08:20:13.765Z,78.79
2018-08-31T08:21:13.682Z,79.94
2018-08-31T08:22:13.590Z,78.11
2018-08-31T08:23:13.546Z,77.73
2018-08-31T08:24:13.424Z,77.00
2018-08-31T08:25:14.371Z,76.13
2018-08-31T08:26:13.363Z,76.13
2018-08-31T08:27:13.199Z,77.63
2018-08-31T08:28:13.158Z,76.57
2018-08-31T08:30:55.030Z,75.80
2018-08-31T08:33:36.998Z,75.93
2018-08-31T08:34:36.952Z,76.13
2018-08-31T08:35:36.874Z,74.91
2018-08-31T08:38:19.022Z,72.38
2018-08-31T08:39:18.932Z,72.25
2018-08-31T08:40:18.898Z,72.63
2018-08-31T08:41:18.790Z,72.19
2018-08-31T08:42:18.751Z,70.97
2018-08-31T08:43:18.630Z,70.58
2018-08-31T08:44:18.555Z,69.62
2018-08-31T08:45:18.492Z,69.87
2018-08-31T08:46:18.390Z,69.36
2018-08-31T08:49:00.540Z,67.24
2018-08-31T08:51:42.549Z,68.94
2018-08-31T08:52:42.453Z,69.04
2018-08-31T08:53:42.380Z,68.78
2018-08-31T08:54:42.299Z,68.52
2018-08-31T08:55:42.257Z,69.04
2018-08-31T08:58:24.563Z,69.55
2018-08-31T09:01:06.539Z,69.64
2018-08-31T09:02:06.453Z,69.39
2018-08-31T09:03:06.365Z,69.45
2018-08-31T09:05:48.619Z,70.86
2018-08-31T09:06:48.454Z,71.54
2018-08-31T09:07:48.371Z,71.54
2018-08-31T09:08:48.326Z,71.09
2018-08-31T09:09:48.222Z,70.42
2018-08-31T09:10:49.162Z,70.16
2018-08-31T09:11:48.131Z,69.93
2018-08-31T09:12:48.000Z,69.97
2018-08-31T09:13:47.922Z,70.06
2018-08-31T09:16:30.054Z,68.59
2018-08-31T09:17:29.953Z,69.20
2018-08-31T09:18:29.895Z,68.40
2018-08-31T09:19:29.800Z,67.91
2018-08-31T09:20:29.739Z,68.55
2018-08-31T09:21:29.679Z,67.78
2018-08-31T09:22:29.578Z,68.13
2018-08-31T09:25:11.577Z,66.88
2018-08-31T09:27:53.561Z,64.34
2018-08-31T09:28:53.456Z,62.79
2018-08-31T09:29:53.380Z,62.30
2018-08-31T09:32:35.566Z,62.63
2018-08-31T09:35:17.538Z,63.11
2018-08-31T09:37:59.551Z,61.01
2018-08-31T09:38:59.468Z,58.42
2018-08-31T09:39:59.387Z,58.47
2018-08-31T09:40:59.311Z,59.30
2018-08-31T09:41:59.237Z,59.52
2018-08-31T09:43:00.190Z,58.72
2018-08-31T09:43:59.177Z,58.88
2018-08-31T09:44:59.039Z,58.84
2018-08-31T09:45:58.975Z,57.32
2018-08-31T09:46:58.883Z,57.32
2018-08-31T09:47:58.843Z,57.75
2018-08-31T09:50:41.040Z,55.99
2018-08-31T09:53:23.070Z,56.81
2018-08-31T09:56:05.057Z,54.19
2018-08-31T09:57:05.003Z,54.84
2018-08-31T09:58:04.924Z,55.83
2018-08-31T09:59:04.893Z,56.39
2018-08-31T10:00:04.759Z,56.68
2018-08-31T10:01:04.692Z,55.04
2018-08-31T10:02:04.625Z,54.33
2018-08-31T10:03:04.548Z,54.02
2018-08-31T10:04:04.529Z,54.70
2018-08-31T10:05:04.443Z,54.60
2018-08-31T10:06:04.373Z,54.84
2018-08-31T10:07:04.272Z,55.68
2018-08-31T10:08:04.270Z,54.96
2018-08-31T10:09:04.172Z,55.57
2018-08-31T10:10:04.086Z,54.77
2018-08-31T10:12:46.043Z,53.70
2018-08-31T10:13:45.976Z,53.22
2018-08-31T10:14:45.954Z,52.47
2018-08-31T10:15:45.841Z,53.31
2018-08-31T10:16:45.763Z,54.81
2018-08-31T10:17:45.707Z,54.35
2018-08-31T10:18:45.757Z,53.02
2018-08-31T10:21:27.596Z,53.24
2018-08-31T10:22:27.482Z,54.96
2018-08-31T10:23:27.411Z,55.21
2018-08-31T10:24:28.496Z,57.66
2018-08-31T10:25:27.271Z,57.04
2018-08-31T10:26:27.242Z,56.75
2018-08-31T10:27:27.293Z,56.14
2018-08-31T10:28:27.071Z,58.45
2018-08-31T10:29:27.020Z,61.02
2018-08-31T10:30:26.957Z,61.89
2018-08-31T10:31:26.866Z,61.74
2018-08-31T10:32:26.796Z,62.31
2018-08-31T10:33:26.717Z,62.12
2018-08-31T10:34:26.664Z,62.41
2018-08-31T10:35:26.603Z,62.28
2018-08-31T10:36:26.510Z,63.21
2018-08-31T10:37:26.444Z,64.08
2018-08-31T10:38:26.357Z,63.24
2018-08-31T10:39:26.366Z,62.76
2018-08-31T10:40:26.235Z,63.31
2018-08-31T10:41:26.149Z,63.92
2018-08-31T10:42:26.074Z,64.08
2018-08-31T10:43:26.016Z,63.92
2018-08-31T10:46:08.087Z,61.47
2018-08-31T10:47:08.002Z,60.05
2018-08-31T10:48:07.936Z,58.82
2018-08-31T10:49:07.837Z,58.12
2018-08-31T10:50:07.816Z,58.04
2018-08-31T10:52:50.123Z,56.93
2018-08-31T10:53:49.993Z,55.77
2018-08-31T10:54:49.915Z,56.09
2018-08-31T10:55:49.985Z,55.46
2018-08-31T10:56:49.775Z,53.99
2018-08-31T10:57:49.701Z,54.01
2018-08-31T10:58:49.704Z,53.75
2018-08-31T10:59:49.557Z,53.41
2018-08-31T11:00:49.494Z,54.68
2018-08-31T11:03:31.603Z,56.98
2018-08-31T11:06:13.600Z,53.94
2018-08-31T11:07:13.502Z,53.19
2018-08-31T11:08:13.419Z,52.44
2018-08-31T11:10:55.599Z,52.95
2018-08-31T11:11:55.618Z,53.65
2018-08-31T11:12:55.434Z,52.49
2018-08-31T11:13:55.383Z,52.95
2018-08-31T11:14:55.280Z,53.23
2018-08-31T11:15:55.284Z,53.14
2018-08-31T11:16:55.148Z,51.98
2018-08-31T11:17:55.101Z,52.39
2018-08-31T11:18:55.017Z,54.30
2018-08-31T11:21:37.139Z,57.77
2018-08-31T11:22:37.008Z,58.37
2018-08-31T11:23:36.930Z,57.56
2018-08-31T11:24:36.894Z,56.07
2018-08-31T11:25:36.818Z,54.88
2018-08-31T11:26:36.770Z,54.03
2018-08-31T11:27:36.711Z,55.04
2018-08-31T11:28:36.584Z,54.33
2018-08-31T11:29:36.508Z,55.36
2018-08-31T11:30:36.448Z,55.17
2018-08-31T11:31:36.371Z,55.67
2018-08-31T11:32:37.315Z,56.93
2018-08-31T11:33:36.237Z,55.60
2018-08-31T11:34:36.168Z,54.88
2018-08-31T11:35:36.089Z,52.42
2018-08-31T11:36:36.045Z,52.32
2018-08-31T11:37:35.965Z,50.84
2018-08-31T11:38:35.874Z,50.67
2018-08-31T11:39:35.801Z,50.96
2018-08-31T11:40:35.743Z,52.22
2018-08-31T11:41:35.674Z,52.51
2018-08-31T11:42:35.635Z,53.04
2018-08-31T11:43:35.525Z,55.17
2018-08-31T11:44:35.456Z,55.20
2018-08-31T11:45:35.390Z,55.32
2018-08-31T11:46:35.313Z,54.77
2018-08-31T11:47:35.377Z,52.18
2018-08-31T11:48:35.198Z,51.76
2018-08-31T11:49:35.135Z,54.52
2018-08-31T11:50:35.035Z,54.63
2018-08-31T11:51:34.980Z,56.45
2018-08-31T11:52:35.910Z,56.54
2018-08-31T11:53:34.957Z,57.35
2018-08-31T11:54:34.765Z,58.70
2018-08-31T11:55:34.689Z,58.45
2018-08-31T11:56:34.671Z,57.12
2018-08-31T11:57:34.581Z,57.67
2018-08-31T11:58:34.473Z,57.96
2018-08-31T11:59:34.400Z,57.29
2018-08-31T12:02:16.586Z,59.16
2018-08-31T12:03:16.576Z,59.23
2018-08-31T12:04:16.497Z,59.42
2018-08-31T12:05:16.407Z,59.00
2018-08-31T12:06:16.413Z,60.42
2018-08-31T12:08:58.619Z,61.00
2018-08-31T12:09:58.539Z,61.68
2018-08-31T12:10:58.447Z,61.87
2018-08-31T12:11:58.387Z,62.38
2018-08-31T12:12:58.308Z,60.68
2018-08-31T12:13:58.259Z,60.96
2018-08-31T12:14:58.158Z,60.58
2018-08-31T12:15:58.091Z,60.28
2018-08-31T12:16:57.992Z,60.00
2018-08-31T12:17:57.946Z,60.77
2018-08-31T12:18:57.882Z,59.55
2018-08-31T12:19:57.781Z,60.03
2018-08-31T12:20:57.699Z,59.06
2018-08-31T12:21:57.615Z,59.16
2018-08-31T12:22:57.552Z,59.25
2018-08-31T12:23:57.510Z,59.74
2018-08-31T12:24:57.432Z,58.48
2018-08-31T12:25:57.352Z,57.49
2018-08-31T12:26:57.244Z,58.29
2018-08-31T12:27:57.161Z,57.32
2018-08-31T12:28:57.086Z,57.32
2018-08-31T12:29:57.042Z,56.56
2018-08-31T12:30:56.943Z,56.16
2018-08-31T12:31:56.861Z,56.56
2018-08-31T12:32:56.777Z,56.74
2018-08-31T12:33:56.737Z,56.84
2018-08-31T12:34:56.632Z,56.07
2018-08-31T12:35:56.577Z,56.16
2018-08-31T12:36:56.480Z,56.84
2018-08-31T12:37:56.428Z,55.30
2018-08-31T12:38:56.344Z,54.60
2018-08-31T12:39:56.256Z,55.68
2018-08-31T12:40:56.213Z,55.49
2018-08-31T12:43:38.125Z,54.09
2018-08-31T12:44:38.082Z,55.82
2018-08-31T12:45:37.950Z,55.56
2018-08-31T12:46:37.894Z,55.85
2018-08-31T12:47:37.792Z,55.76
2018-08-31T12:50:20.128Z,55.04
2018-08-31T12:51:20.044Z,54.43
2018-08-31T12:52:19.968Z,55.23
2018-08-31T12:53:19.926Z,54.65
2018-08-31T12:54:19.807Z,54.36
2018-08-31T12:55:20.756Z,53.49
2018-08-31T12:56:19.679Z,54.10
2018-08-31T12:57:19.577Z,54.94
2018-08-31T12:58:19.505Z,55.33
2018-08-31T12:59:19.444Z,54.46
2018-08-31T13:00:19.458Z,54.07
2018-08-31T13:01:19.302Z,53.95
2018-08-31T13:02:19.205Z,54.05
2018-08-31T13:05:01.107Z,54.17
2018-08-31T13:06:01.064Z,53.08
2018-08-31T13:07:01.046Z,51.89
2018-08-31T13:08:00.888Z,52.95
2018-08-31T13:09:00.835Z,52.86
2018-08-31T13:10:00.754Z,53.34
2018-08-31T13:11:00.810Z,52.67
2018-08-31T13:12:00.583Z,54.33
2018-08-31T13:13:00.515Z,52.37
2018-08-31T13:14:00.485Z,53.25
2018-08-31T13:15:00.348Z,53.44
2018-08-31T13:16:00.352Z,52.64
2018-08-31T13:17:00.374Z,53.13
2018-08-31T13:18:00.123Z,54.11
2018-08-31T13:19:00.044Z,54.98
2018-08-31T13:21:42.125Z,52.98
2018-08-31T13:22:42.075Z,53.17
2018-08-31T13:23:42.014Z,52.50
2018-08-31T13:24:41.903Z,52.62
2018-08-31T13:25:41.810Z,51.65
2018-08-31T13:26:41.934Z,52.04
2018-08-31T13:27:41.701Z,52.31
2018-08-31T13:30:23.773Z,53.05
2018-08-31T13:31:23.573Z,53.17
2018-08-31T13:32:23.528Z,52.79
2018-08-31T13:33:23.418Z,53.37
2018-08-31T13:34:23.329Z,54.14
2018-08-31T13:35:23.243Z,54.72
2018-08-31T13:36:23.185Z,55.59
2018-08-31T13:37:23.132Z,55.27
2018-08-31T13:38:23.089Z,55.76
2018-08-31T13:41:05.133Z,56.11
2018-08-31T13:42:05.060Z,56.98
2018-08-31T13:43:05.145Z,57.27
2018-08-31T13:44:04.980Z,56.59
2018-08-31T13:45:04.818Z,56.88
2018-08-31T13:46:04.747Z,57.65
2018-08-31T13:47:04.660Z,57.65
2018-08-31T13:48:04.635Z,57.56
2018-08-31T13:49:04.533Z,57.56
2018-08-31T13:51:46.623Z,57.01
2018-08-31T13:52:46.671Z,57.29
2018-08-31T13:53:46.488Z,56.69
2018-08-31T13:54:46.403Z,56.69
2018-08-31T13:55:46.316Z,57.07
2018-08-31T13:56:46.257Z,57.37
2018-08-31T13:57:46.179Z,57.75
2018-08-31T13:58:46.124Z,57.24
2018-08-31T13:59:46.018Z,58.08
2018-08-31T14:02:28.181Z,58.49
2018-08-31T14:05:10.176Z,58.23
2018-08-31T14:06:10.062Z,57.39
2018-08-31T14:07:09.982Z,56.88
2018-08-31T14:08:10.982Z,56.59
2018-08-31T14:09:09.827Z,56.98
2018-08-31T14:10:09.752Z,56.88
2018-08-31T14:11:09.684Z,57.27
2018-08-31T14:12:09.616Z,57.94
2018-08-31T14:13:09.519Z,57.46
2018-08-31T14:14:09.467Z,56.88
2018-08-31T14:15:09.367Z,57.07
2018-08-31T14:16:09.288Z,57.56
2018-08-31T14:17:09.214Z,58.04
2018-08-31T14:18:09.142Z,58.52
2018-08-31T14:19:09.181Z,59.30
2018-08-31T14:21:51.151Z,59.00
2018-08-31T14:22:51.073Z,58.30
2018-08-31T14:23:50.979Z,58.20
2018-08-31T14:24:50.952Z,58.40
2018-08-31T14:25:50.927Z,57.05
2018-08-31T14:26:50.762Z,58.40
2018-08-31T14:27:50.673Z,58.30
2018-08-31T14:28:50.634Z,58.30
2018-08-31T14:29:50.645Z,59.45
2018-08-31T14:32:32.637Z,59.27
2018-08-31T14:33:32.575Z,58.40
2018-08-31T14:34:32.513Z,58.40
2018-08-31T14:35:32.585Z,58.11
2018-08-31T14:36:32.344Z,57.53
2018-08-31T14:37:32.266Z,57.43
2018-08-31T14:38:32.173Z,58.30
2018-08-31T14:39:32.120Z,58.01
2018-08-31T14:40:32.045Z,58.33
2018-08-31T14:41:32.054Z,57.27
2018-08-31T14:42:31.856Z,57.17
2018-08-31T14:43:31.792Z,56.98
2018-08-31T14:44:31.711Z,57.27
2018-08-31T14:45:31.680Z,57.82
2018-08-31T14:46:31.548Z,58.11
2018-08-31T14:47:31.485Z,58.59
2018-08-31T14:48:31.398Z,58.97
2018-08-31T14:49:31.432Z,59.10
2018-08-31T14:50:31.279Z,58.52
2018-08-31T14:53:13.161Z,58.72
2018-08-31T14:54:13.076Z,56.79
2018-08-31T14:55:13.007Z,54.93
2018-08-31T14:56:12.940Z,54.74
2018-08-31T14:57:12.838Z,55.15
2018-08-31T14:58:12.760Z,54.93
2018-08-31T14:59:12.682Z,53.41
2018-08-31T15:01:54.837Z,53.89
2018-08-31T15:02:54.582Z,54.86
2018-08-31T15:03:54.505Z,55.05
2018-08-31T15:04:54.438Z,55.05
2018-08-31T15:05:54.427Z,54.47
2018-08-31T15:06:54.309Z,55.08
2018-08-31T15:07:54.189Z,54.79
2018-08-31T15:08:54.117Z,54.88
2018-08-31T15:09:54.034Z,54.79
2018-08-31T15:10:53.973Z,54.11
2018-08-31T15:11:53.974Z,54.40
2018-08-31T15:12:53.841Z,54.40
2018-08-31T15:13:53.729Z,54.50
2018-08-31T15:14:53.755Z,53.13
2018-08-31T15:15:53.564Z,53.22
2018-08-31T15:16:54.504Z,53.53
2018-08-31T15:17:53.428Z,53.92
2018-08-31T15:18:53.339Z,53.83
2018-08-31T15:19:53.255Z,54.02
2018-08-31T15:20:53.212Z,54.31
2018-08-31T15:21:53.119Z,55.27
2018-08-31T15:22:53.037Z,54.02
2018-08-31T15:23:52.945Z,54.18
2018-08-31T15:24:52.873Z,54.74
2018-08-31T15:25:52.793Z,54.93
2018-08-31T15:26:53.750Z,54.47
2018-08-31T15:27:52.642Z,55.82
2018-08-31T15:28:52.570Z,56.24
2018-08-31T15:29:52.503Z,55.76
2018-08-31T15:30:52.407Z,55.36
2018-08-31T15:31:52.389Z,54.69